Map

Track Data

SID SEASON NUMBER BASIN SUBBASIN NAME ISO_TIME NATURE LAT LON WMO_WIND WMO_PRES WMO_AGENCY TRACK_TYPE DIST2LAND LANDFALL IFLAG USA_AGENCY USA_ATCF_ID USA_LAT USA_LON USA_RECORD USA_STATUS USA_WIND USA_PRES USA_SSHS USA_R34_NE USA_R34_SE USA_R34_SW USA_R34_NW USA_R50_NE USA_R50_SE USA_R50_SW USA_R50_NW USA_R64_NE USA_R64_SE USA_R64_SW USA_R64_NW USA_POCI USA_ROCI USA_RMW USA_EYE TOKYO_LAT TOKYO_LON TOKYO_GRADE TOKYO_WIND TOKYO_PRES TOKYO_R50_DIR TOKYO_R50_LONG TOKYO_R50_SHORT TOKYO_R30_DIR TOKYO_R30_LONG TOKYO_R30_SHORT TOKYO_LAND CMA_LAT CMA_LON CMA_CAT CMA_WIND CMA_PRES HKO_LAT HKO_LON HKO_CAT HKO_WIND HKO_PRES NEWDELHI_LAT NEWDELHI_LON NEWDELHI_GRADE NEWDELHI_WIND NEWDELHI_PRES NEWDELHI_CI NEWDELHI_DP NEWDELHI_POCI REUNION_LAT REUNION_LON REUNION_TYPE REUNION_WIND REUNION_PRES REUNION_TNUM REUNION_CI REUNION_RMW REUNION_R34_NE REUNION_R34_SE REUNION_R34_SW REUNION_R34_NW REUNION_R50_NE REUNION_R50_SE REUNION_R50_SW REUNION_R50_NW REUNION_R64_NE REUNION_R64_SE REUNION_R64_SW REUNION_R64_NW BOM_LAT BOM_LON BOM_TYPE BOM_WIND BOM_PRES BOM_TNUM BOM_CI BOM_RMW BOM_R34_NE BOM_R34_SE BOM_R34_SW BOM_R34_NW BOM_R50_NE BOM_R50_SE BOM_R50_SW BOM_R50_NW BOM_R64_NE BOM_R64_SE BOM_R64_SW BOM_R64_NW BOM_ROCI BOM_POCI BOM_EYE BOM_POS_METHOD BOM_PRES_METHOD NADI_LAT NADI_LON NADI_CAT NADI_WIND NADI_PRES WELLINGTON_LAT WELLINGTON_LON WELLINGTON_WIND WELLINGTON_PRES DS824_LAT DS824_LON DS824_STAGE DS824_WIND DS824_PRES TD9636_LAT TD9636_LON TD9636_STAGE TD9636_WIND TD9636_PRES TD9635_LAT TD9635_LON TD9635_WIND TD9635_PRES TD9635_ROCI NEUMANN_LAT NEUMANN_LON NEUMANN_CLASS NEUMANN_WIND NEUMANN_PRES MLC_LAT MLC_LON MLC_CLASS MLC_WIND MLC_PRES USA_GUST BOM_GUST BOM_GUST_PER REUNION_GUST REUNION_GUST_PER USA_SEAHGT USA_SEARAD_NE USA_SEARAD_SE USA_SEARAD_SW USA_SEARAD_NW STORM_SPEED STORM_DIR
1947068S12161 1947 22 SP MM NOT_NAMED 1947-03-09 00:00:00 TS -12.4000 161.000 main 199 194 O________OO___ jtwc_sh SH201947 -12.4000 161.000 -1 -12.4000 161.000 TC -12.4000 161.000 2 13 130
1947068S12161 1947 22 SP MM NOT_NAMED 1947-03-09 03:00:00 TS -12.8094 161.507 main 226 226 P________PP___ SH201947 -12.8152 161.515 -1 -12.8152 161.515 TC -12.7978 161.490 2 13 129
1947068S12161 1947 22 SP MM NOT_NAMED 1947-03-09 06:00:00 TS -13.1920 161.988 main 268 268 O________OP___ jtwc_sh SH201947 -13.2000 162.000 -1 -13.2000 162.000 TC -13.1761 161.965 2 11 129
1947068S12161 1947 22 SP MM NOT_NAMED 1947-03-09 09:00:00 TS -13.5254 162.423 main 302 302 P________PP___ SH201947 -13.5299 162.430 -1 -13.5299 162.430 TC -13.5163 162.408 2 10 128
1947068S12161 1947 22 SP MM NOT_NAMED 1947-03-09 12:00:00 TS -13.8000 162.800 main 340 340 O________OO___ jtwc_sh SH201947 -13.8000 162.800 -1 -13.8000 162.800 TC -13.8000 162.800 2 8 126
1947068S12161 1947 22 SP MM NOT_NAMED 1947-03-09 15:00:00 TS -14.0160 163.121 main 368 340 P________PP___ SH201947 -14.0149 163.115 -1 -14.0149 163.115 TC -14.0182 163.132 2 7 124
1947068S12161 1947 22 SP MM NOT_NAMED 1947-03-09 18:00:00 TS -14.1998 163.408 main 340 304 O________OP___ jtwc_sh SH201947 -14.2000 163.400 -1 -14.2000 163.400 TC -14.1993 163.424 2 7 123
1947068S12161 1947 22 SP MM NOT_NAMED 1947-03-09 21:00:00 TS -14.3785 163.691 main 304 269 P________PP___ SH201947 -14.3774 163.685 -1 -14.3774 163.685 TC -14.3807 163.704 2 7 125
1947068S12161 1947 22 SP MM NOT_NAMED 1947-03-10 00:00:00 TS -14.6000 164.000 main 269 226 O________OO___ jtwc_sh SH201947 -14.6000 164.000 -1 -14.6000 164.000 TC -14.6000 164.000 2 9 129
1947068S12161 1947 22 SP MM NOT_NAMED 1947-03-10 03:00:00 TS -14.9234 164.386 main 226 191 P________PP___ SH201947 -14.9275 164.392 -1 -14.9275 164.392 TC -14.9152 164.373 2 10 132
1947068S12161 1947 22 SP MM NOT_NAMED 1947-03-10 06:00:00 TS -15.2901 164.788 main 191 162 O________OP___ jtwc_sh SH201947 -15.3000 164.800 -1 -15.3000 164.800 TC -15.2703 164.764 2 11 135
1947068S12161 1947 22 SP MM NOT_NAMED 1947-03-10 09:00:00 TS -15.6567 165.159 main 153 135 P________PP___ SH201947 -15.6649 165.165 -1 -15.6649 165.165 TC -15.6402 165.148 2 10 136
1947068S12161 1947 22 SP MM NOT_NAMED 1947-03-10 12:00:00 TS -16.0000 165.500 main 135 120 O________OO___ jtwc_sh SH201947 -16.0000 165.500 -1 -16.0000 165.500 TC -16.0000 165.500 2 9 134
1947068S12161 1947 22 SP MM NOT_NAMED 1947-03-10 15:00:00 TS -16.2632 165.816 main 126 115 P________PP___ SH201947 -16.2500 165.823 -1 -16.2500 165.823 TC -16.2898 165.803 2 8 133
1947068S12161 1947 22 SP MM NOT_NAMED 1947-03-10 18:00:00 TS -16.5233 166.089 main 115 108 O________OP___ jtwc_sh SH201947 -16.5000 166.100 -1 -16.5000 166.100 TC -16.5698 166.068 2 7 140
1947068S12161 1947 22 SP MM NOT_NAMED 1947-03-10 21:00:00 TS -16.8349 166.315 main 115 115 P________PP___ SH201947 -16.8200 166.323 -1 -16.8200 166.323 TC -16.8649 166.300 2 8 150
1947068S12161 1947 22 SP MM NOT_NAMED 1947-03-11 00:00:00 TS -17.2000 166.500 main 123 123 O________OO___ jtwc_sh SH201947 -17.2000 166.500 -1 -17.2000 166.500 TC -17.2000 166.500 2 9 157
1947068S12161 1947 22 SP MM NOT_NAMED 1947-03-11 03:00:00 TS -17.6256 166.670 main 140 140 P________PP___ SH201947 -17.6350 166.658 -1 -17.6350 166.658 TC -17.6068 166.695 2 9 161
1947068S12161 1947 22 SP MM NOT_NAMED 1947-03-11 06:00:00 TS -18.0850 166.820 main 183 183 O________OP___ jtwc_sh SH201947 -18.1000 166.800 -1 -18.1000 166.800 TC -18.0549 166.860 2 10 162
1947068S12161 1947 22 SP MM NOT_NAMED 1947-03-11 09:00:00 TS -18.5419 166.975 main 219 219 P________PP___ SH201947 -18.5500 166.965 -1 -18.5500 166.965 TC -18.5256 166.995 2 10 164
1947068S12161 1947 22 SP MM NOT_NAMED 1947-03-11 12:00:00 TS -19.0000 167.100 main 271 259 O________OO___ jtwc_sh SH201947 -19.0000 167.100 -1 -19.0000 167.100 TC -19.0000 167.100 2 9 169
1947068S12161 1947 22 SP MM NOT_NAMED 1947-03-11 15:00:00 TS -19.4418 167.158 main 259 212 P________PP___ SH201947 -19.4500 167.165 -1 -19.4500 167.165 TC -19.4254 167.144 2 9 175
1947068S12161 1947 22 SP MM NOT_NAMED 1947-03-11 18:00:00 TS -19.8849 167.188 main 212 176 O________OP___ jtwc_sh SH201947 -19.9000 167.200 -1 -19.9000 167.200 TC -19.8547 167.165 2 9 177
1947068S12161 1947 22 SP MM NOT_NAMED 1947-03-11 21:00:00 TS -20.3205 167.215 main 176 137 P________PP___ SH201947 -20.3274 167.220 -1 -20.3274 167.220 TC -20.3066 167.203 2 9 173
1947068S12161 1947 22 SP MM NOT_NAMED 1947-03-12 00:00:00 TS -20.8000 167.300 main 137 108 O________OO___ jtwc_sh SH201947 -20.8000 167.300 -1 -20.8000 167.300 TC -20.8000 167.300 2 11 166
1947068S12161 1947 22 SP MM NOT_NAMED 1947-03-12 03:00:00 TS -21.3801 167.507 main 99 79 P________PP___ SH201947 -21.3775 167.512 -1 -21.3775 167.512 TC -21.3854 167.497 2 13 159
1947068S12161 1947 22 SP MM NOT_NAMED 1947-03-12 06:00:00 TS -22.0025 167.786 main 85 83 O________OP___ jtwc_sh SH201947 -22.0000 167.800 -1 -22.0000 167.800 TC -22.0076 167.759 2 14 157
1947068S12161 1947 22 SP MM NOT_NAMED 1947-03-12 09:00:00 TS -22.6236 168.074 main 117 117 P________PP___ SH201947 -22.6224 168.078 -1 -22.6224 168.078 TC -22.6260 168.066 2 13 155
1947068S12161 1947 22 SP MM NOT_NAMED 1947-03-12 12:00:00 TS -23.2000 168.400 main 175 175 O________OO___ jtwc_sh SH201947 -23.2000 168.400 -1 -23.2000 168.400 TC -23.2000 168.400 2 13 147
1947068S12161 1947 22 SP MM NOT_NAMED 1947-03-12 15:00:00 TS -23.6774 168.806 main 241 241 P________PP___ SH201947 -23.6801 168.800 -1 -23.6801 168.800 TC -23.6719 168.817 2 12 140
1947068S12161 1947 22 SP MM NOT_NAMED 1947-03-12 18:00:00 TS -24.0986 169.213 main 301 301 O________OP___ jtwc_sh SH201947 -24.1000 169.200 -1 -24.1000 169.200 TC -24.0959 169.240 2 11 139
1947068S12161 1947 22 SP MM NOT_NAMED 1947-03-12 21:00:00 TS -24.4989 169.581 main 361 361 P________PP___ SH201947 -24.5000 169.575 -1 -24.5000 169.575 TC -24.4967 169.594 2 10 146
1947068S12161 1947 22 SP MM NOT_NAMED 1947-03-13 00:00:00 TS -24.9000 169.800 main 406 406 O________OO___ jtwc_sh SH201947 -24.9000 169.800 -1 -24.9000 169.800 TC -24.9000 169.800 2 9 168
1947068S12161 1947 22 SP MM NOT_NAMED 1947-03-13 03:00:00 TS -25.3450 169.786 main 438 438 P________PP___ SH201947 -25.3423 169.790 -1 -25.3423 169.790 TC -25.3505 169.776 2 9 191
1947068S12161 1947 22 SP MM NOT_NAMED 1947-03-13 06:00:00 TS -25.8024 169.599 main 468 468 O________OP___ jtwc_sh SH201947 -25.8000 169.600 -1 -25.8000 169.600 TC -25.8071 169.597 2 10 204
1947068S12161 1947 22 SP MM NOT_NAMED 1947-03-13 09:00:00 TS -26.2584 169.327 main 498 498 P________PP___ SH201947 -26.2576 169.330 -1 -26.2576 169.330 TC -26.2601 169.320 2 11 211
1947068S12161 1947 22 SP MM NOT_NAMED 1947-03-13 12:00:00 TS -26.7000 169.000 main 525 525 O________OO___ jtwc_sh SH201947 -26.7000 169.000 -1 -26.7000 169.000 TC -26.7000 169.000 2 10 213
1947068S12161 1947 22 SP MM NOT_NAMED 1947-03-13 15:00:00 TS -27.1152 168.709 main 555 555 P________PP___ SH201947 -27.1074 168.700 -1 -27.1074 168.700 TC -27.1307 168.729 2 10 213
1947068S12161 1947 22 SP MM NOT_NAMED 1947-03-13 18:00:00 TS -27.5150 168.410 main 589 589 O________OP___ jtwc_sh SH201947 -27.5000 168.400 -1 -27.5000 168.400 TC -27.5450 168.430 2 10 214
1947068S12161 1947 22 SP MM NOT_NAMED 1947-03-13 21:00:00 TS -27.9222 168.105 main 626 626 P________PP___ SH201947 -27.9149 168.100 -1 -27.9149 168.100 TC -27.9369 168.116 2 10 215
1947068S12161 1947 22 SP MM NOT_NAMED 1947-03-14 00:00:00 TS -28.3000 167.800 main 665 665 O________OO___ jtwc_sh SH201947 -28.3000 167.800 -1 -28.3000 167.800 TC -28.3000 167.800 2 9 218
1947068S12161 1947 22 SP MM NOT_NAMED 1947-03-14 03:00:00 TS -28.6154 167.501 main 695 695 P________PP___ SH201947 -28.6149 167.500 -1 -28.6149 167.500 TC -28.6163 167.503 2 8 221
1947068S12161 1947 22 SP MM NOT_NAMED 1947-03-14 06:00:00 TS -28.9024 167.202 main 726 726 O________OP___ jtwc_sh SH201947 -28.9000 167.200 -1 -28.9000 167.200 TC -28.9071 167.206 2 8 222
1947068S12161 1947 22 SP MM NOT_NAMED 1947-03-14 09:00:00 TS -29.1931 166.902 main 759 759 P________PP___ SH201947 -29.1924 166.900 -1 -29.1924 166.900 TC -29.1944 166.906 2 8 221
1947068S12161 1947 22 SP MM NOT_NAMED 1947-03-14 12:00:00 TS -29.5000 166.600 main 793 783 O________OO___ jtwc_sh SH201947 -29.5000 166.600 -1 -29.5000 166.600 TC -29.5000 166.600 2 8 219
1947068S12161 1947 22 SP MM NOT_NAMED 1947-03-14 15:00:00 TS -29.8367 166.300 main 790 782 P________PP___ SH201947 -29.8349 166.307 -1 -29.8349 166.307 TC -29.8404 166.285 2 9 217
1947068S12161 1947 22 SP MM NOT_NAMED 1947-03-14 18:00:00 TS -30.2036 165.988 main 782 776 O________OP___ jtwc_sh SH201947 -30.2000 166.000 -1 -30.2000 166.000 TC -30.2108 165.963 2 9 216
1947068S12161 1947 22 SP MM NOT_NAMED 1947-03-14 21:00:00 TS -30.5954 165.652 main 778 778 P________PP___ SH201947 -30.5927 165.661 -1 -30.5927 165.661 TC -30.6007 165.634 2 10 217
1947068S12161 1947 22 SP MM NOT_NAMED 1947-03-15 00:00:00 TS -31.0000 165.300 main 784 O________OO___ jtwc_sh SH201947 -31.0000 165.300 -1 -31.0000 165.300 TC -31.0000 165.300 2 10 217

Digital Typhoon Data and Search

About IBTrACS Database

This database is a web-friendly format of International Best Track Archive for Climate Stewardship (IBTrACS), a global best track data archive curated by NOAA dating back to 1842.

Updated: 2021-10-25